TimeMDT,TemperatureF,Dew PointF,Humidity,Sea Level PressureIn,VisibilityMPH,Wind Direction,Wind SpeedMPH,Gust SpeedMPH,PrecipitationIn,Events,Conditions,WindDirDegrees,DateUTC
12:53 AM,52.0,44.1,74,29.98,10.0,NE,5.8,-,0.00,,Overcast,50,2013-05-21 06:53:00
1:53 AM,48.9,42.1,77,30.00,10.0,Calm,Calm,-,N/A,,Clear,0,2013-05-21 07:53:00
2:53 AM,48.9,39.9,71,29.98,10.0,Calm,Calm,-,N/A,,Clear,0,2013-05-21 08:53:00
3:53 AM,48.0,39.0,71,29.97,10.0,Calm,Calm,-,N/A,,Clear,0,2013-05-21 09:53:00
4:53 AM,46.0,39.0,76,29.98,10.0,Calm,Calm,-,N/A,,Mostly Cloudy,0,2013-05-21 10:53:00
5:53 AM,45.0,37.9,76,29.99,10.0,NNE,5.8,-,N/A,,Clear,20,2013-05-21 11:53:00
6:53 AM,48.0,41.0,77,29.99,10.0,SE,4.6,-,N/A,,Mostly Cloudy,130,2013-05-21 12:53:00
7:53 AM,52.0,41.0,66,29.99,10.0,SSE,5.8,-,N/A,,Clear,160,2013-05-21 13:53:00
8:53 AM,55.9,39.9,55,29.98,10.0,SSE,9.2,-,N/A,,Partly Cloudy,160,2013-05-21 14:53:00
9:53 AM,59.0,39.0,48,29.98,10.0,SSE,10.4,-,N/A,,Partly Cloudy,150,2013-05-21 15:53:00
10:53 AM,62.1,37.0,39,29.94,10.0,South,8.1,-,N/A,,Clear,170,2013-05-21 16:53:00
11:53 AM,64.9,34.0,32,29.91,10.0,Variable,5.8,-,N/A,,Partly Cloudy,0,2013-05-21 17:53:00
12:53 PM,66.0,32.0,28,29.89,10.0,SW,6.9,-,N/A,,Partly Cloudy,220,2013-05-21 18:53:00
1:53 PM,69.1,30.9,24,29.87,10.0,Variable,3.5,-,N/A,,Clear,0,2013-05-21 19:53:00
2:53 PM,72.0,30.0,21,29.83,10.0,WNW,10.4,16.1,N/A,,Clear,300,2013-05-21 20:53:00
3:53 PM,72.0,30.9,22,29.81,10.0,NW,11.5,17.3,N/A,,Clear,320,2013-05-21 21:53:00
4:53 PM,73.9,30.0,20,29.78,10.0,NNW,10.4,17.3,N/A,,Clear,330,2013-05-21 22:53:00
5:53 PM,73.0,28.9,20,29.76,10.0,NW,10.4,17.3,N/A,,Clear,320,2013-05-21 23:53:00
6:53 PM,72.0,28.0,20,29.74,10.0,NW,5.8,-,N/A,,Clear,320,2013-05-22 00:53:00
7:53 PM,69.1,28.0,22,29.73,10.0,NNW,9.2,-,N/A,,Clear,330,2013-05-22 01:53:00
8:53 PM,64.9,25.0,22,29.74,10.0,NNE,5.8,-,N/A,,Clear,20,2013-05-22 02:53:00
9:53 PM,62.1,26.1,25,29.74,10.0,Calm,Calm,-,N/A,,Clear,0,2013-05-22 03:53:00
10:53 PM,61.0,27.0,27,29.74,10.0,ENE,3.5,-,N/A,,Clear,70,2013-05-22 04:53:00
11:53 PM,57.0,30.0,36,29.74,10.0,Calm,Calm,-,N/A,,Clear,0,2013-05-22 05:53:00